Latest Weather Observations for Mildura

IDN60801

Issued at 2:02 pm EST Wednesday 5 August 2015 (issued every 30 minutes, with the page automatically refreshed every 10 minutes)

About weather observations | Map of weather stations | Latest weather observations for NSW | Other Formats
Station Details ID: 076031 Name: MILDURA AIRPORT Lat: -34.24 Lon: 142.09 Height: 50.0 m
Data from the previous 72 hours. | See also: Recent months at Mildura
Date/Time
EST
Temp
°C
App
Temp
°C
Dew
Point
Rel
Hum
%
Delta-T
°C
Wind Press
QNH
hPa
Press
MSL
hPa
Rain
since 9 am
mm
Dir
 
Spd
km/h
Gust
km/h
Spd
kts
Gust
kts
05/02:00pm 13.8 9.7 8.0 68 2.9 W 19 30 10 16 1018.0 1018.0 0.6
05/01:30pm 13.0 7.8 7.2 68 2.8 WSW 24 35 13 19 1018.2 1018.2 0.6
05/01:00pm 11.1 6.5 8.3 83 1.4 WSW 22 35 12 19 1018.9 1018.9 0.6
05/12:30pm 12.0 7.9 8.8 81 1.6 WSW 20 32 11 17 1019.1 1019.1 0.6
05/12:11pm 11.2 8.1 10.3 94 0.5 WSW 17 28 9 15 1019.4 1019.4 0.6
05/12:00pm 10.0 6.0 9.2 95 0.4 WSW 20 33 11 18 1019.7 1019.7 0.6
05/11:39am 10.6 5.8 8.7 88 0.9 WSW 24 39 13 21 1019.9 1019.9 0.2
05/11:30am 11.4 6.3 7.7 78 1.8 WSW 24 35 13 19 1019.9 1019.9 0.0
05/11:00am 11.6 6.5 7.7 77 1.9 WSW 24 37 13 20 1019.9 1019.9 0.0
05/10:30am 11.3 6.2 7.8 79 1.7 W 24 37 13 20 1019.8 1019.8 0.0
05/10:00am 10.5 5.4 7.7 83 1.3 W 24 37 13 20 1019.9 1019.9 0.0
05/09:30am 10.1 5.8 7.9 86 1.1 W 20 32 11 17 1019.8 1019.8 0.0
05/09:00am 8.7 4.5 7.3 91 0.7 W 19 26 10 14 1020.0 1020.0 0.2
05/08:30am 8.3 4.4 7.1 92 0.6 WNW 17 26 9 14 1019.7 1019.7 0.2
05/08:00am 7.6 3.7 6.9 95 0.3 WNW 17 24 9 13 1019.6 1019.6 0.2
05/07:30am 6.9 3.6 6.3 96 0.3 WNW 13 20 7 11 1019.6 1019.6 0.2
05/07:00am 7.2 3.5 6.5 95 0.3 WNW 15 20 8 11 1019.4 1019.4 0.2
05/06:30am 7.4 4.2 6.8 96 0.3 WNW 13 19 7 10 1019.4 1019.4 0.2
05/06:00am 7.5 3.5 6.8 95 0.3 WNW 17 24 9 13 1019.5 1019.5 0.2
05/05:30am 7.2 4.0 6.8 97 0.2 WNW 13 20 7 11 1019.3 1019.3 0.2
05/05:11am 7.3 3.4 6.9 97 0.2 WNW 17 24 9 13 1019.2 1019.2 0.2
05/05:00am 7.4 3.5 7.0 97 0.2 WNW 17 30 9 16 1019.2 1019.2 0.2
05/04:49am 7.6 3.3 7.2 97 0.2 WNW 19 26 10 14 1019.3 1019.3 0.2
05/04:33am 7.7 3.8 7.1 96 0.3 WNW 17 26 9 14 1019.2 1019.2 0.2
05/04:30am 7.7 3.8 7.0 95 0.3 WNW 17 26 9 14 1019.3 1019.3 0.2
05/04:08am 7.9 3.9 6.7 92 0.6 WNW 17 26 9 14 1019.6 1019.6 0.0
05/04:00am 8.0 4.0 6.5 90 0.7 NW 17 24 9 13 1019.5 1019.5 0.0
05/03:30am 7.7 3.7 6.5 92 0.6 NW 17 20 9 11 1019.7 1019.7 0.0
05/03:00am 7.0 3.2 5.9 93 0.5 NW 15 22 8 12 1020.1 1020.1 0.0
05/02:30am 6.8 3.0 5.9 94 0.4 NW 15 20 8 11 1020.6 1020.6 0.0
05/02:00am 6.8 3.4 5.9 94 0.4 NW 13 19 7 10 1021.0 1021.0 0.0
05/01:30am 6.8 3.4 5.7 93 0.5 NW 13 19 7 10 1021.3 1021.3 0.0
05/01:00am 6.7 3.1 5.2 90 0.7 WNW 13 17 7 9 1021.5 1021.5 0.0
05/12:30am 6.8 3.2 4.8 87 0.9 NW 13 17 7 9 1021.8 1021.8 0.0
05/12:00am 6.5 3.5 4.0 84 1.1 WNW 9 13 5 7 1022.1 1022.1 0.0
 
Date/Time
EST
Temp
°C
App
Temp
°C
Dew
Point
Rel
Hum
%
Delta-T
°C
Wind Press
QNH
hPa
Press
MSL
hPa
Rain
since 9 am
mm
Dir
 
Spd
km/h
Gust
km/h
Spd
kts
Gust
kts
04/11:30pm 7.6 4.2 4.2 79 1.5 WNW 11 17 6 9 1022.3 1022.3 0.0
04/11:00pm 8.6 4.9 4.6 76 1.8 WNW 13 17 7 9 1022.3 1022.3 0.0
04/10:30pm 8.8 5.1 4.6 75 1.9 WNW 13 19 7 10 1022.6 1022.6 0.0
04/10:00pm 8.6 5.3 4.6 76 1.8 NW 11 15 6 8 1022.8 1022.8 0.0
04/09:30pm 8.3 5.1 4.9 79 1.5 NW 11 13 6 7 1022.9 1022.9 0.0
04/09:00pm 7.4 4.5 4.4 81 1.3 NW 9 11 5 6 1023.1 1023.1 0.0
04/08:30pm 7.0 4.0 4.0 81 1.3 NW 9 9 5 5 1023.2 1023.2 0.0
04/08:00pm 7.2 4.6 4.2 81 1.3 NW 7 11 4 6 1023.3 1023.3 0.0
04/07:30pm 8.4 6.1 4.8 78 1.6 NW 6 7 3 4 1023.3 1023.3 0.0
04/07:00pm 9.0 6.2 5.2 77 1.7 NW 9 11 5 6 1023.4 1023.4 0.0
04/06:30pm 9.2 6.4 5.2 76 1.8 WNW 9 11 5 6 1023.6 1023.6 0.0
04/06:00pm 10.1 7.8 5.5 73 2.1 WNW 7 9 4 5 1023.5 1023.5 0.0
04/05:30pm 10.5 7.0 5.3 70 2.4 W 13 19 7 10 1023.6 1023.6 0.0
04/05:00pm 10.6 7.2 6.0 73 2.1 W 13 19 7 10 1023.7 1023.7 0.0
04/04:30pm 11.1 7.5 4.8 65 2.9 W 13 20 7 11 1023.8 1023.8 0.0
04/04:00pm 10.7 6.4 5.3 69 2.5 W 17 24 9 13 1024.0 1024.0 0.0
04/03:30pm 11.2 6.7 4.4 63 3.1 W 17 28 9 15 1024.2 1024.2 0.0
04/03:00pm 10.1 5.6 5.9 75 1.9 W 19 30 10 16 1024.3 1024.3 0.0
04/02:30pm 11.3 7.2 4.5 63 3.1 WSW 15 22 8 12 1024.4 1024.4 0.0
04/02:00pm 11.9 7.5 4.9 62 3.2 WSW 17 28 9 15 1024.8 1024.8 0.0
04/01:30pm 10.9 7.3 5.0 67 2.7 W 13 20 7 11 1025.1 1025.1 0.0
04/01:00pm 10.4 6.3 4.5 67 2.6 W 15 20 8 11 1025.6 1025.6 0.0
04/12:30pm 10.2 6.1 4.1 66 2.7 WSW 15 20 8 11 1026.2 1026.3 0.0
04/12:00pm 11.0 6.8 4.0 62 3.1 W 15 24 8 13 1026.6 1026.7 0.0
04/11:30am 10.3 6.3 3.1 61 3.1 W 13 19 7 10 1027.0 1027.1 0.0
04/11:00am 9.8 5.8 2.9 62 2.9 W 13 20 7 11 1027.1 1027.2 0.0
04/10:30am 10.3 6.9 4.0 65 2.8 W 11 17 6 9 1027.2 1027.3 0.0
04/10:00am 9.4 6.3 3.8 68 2.4 SSW 9 11 5 6 1027.3 1027.4 0.0
04/09:30am 8.1 5.7 5.4 83 1.2 SW 7 11 4 6 1027.3 1027.4 0.0
04/09:00am 7.0 4.2 5.0 87 0.9 W 9 13 5 7 1027.4 1027.5 0.0
04/08:30am 5.0 3.4 4.3 95 0.3 SW 2 6 1 3 1027.2 1027.3 0.0
04/08:00am 5.0 2.7 4.7 98 0.1 WNW 6 9 3 5 1027.2 1027.3 0.0
04/07:30am 3.6 1.0 3.0 96 0.2 WSW 6 7 3 4 1027.1 1027.2 0.0
04/07:00am 4.5 1.8 3.8 95 0.3 SW 7 9 4 5 1026.8 1026.9 0.0
04/06:30am 5.3 2.8 4.6 95 0.3 WSW 7 11 4 6 1026.4 1026.5 0.0
04/06:00am 5.6 2.7 4.6 93 0.4 SW 9 17 5 9 1026.2 1026.3 0.0
04/05:30am 5.1 2.6 4.7 97 0.2 WSW 7 11 4 6 1026.1 1026.1 0.0
04/05:00am 5.1 3.2 4.7 97 0.2 WSW 4 9 2 5 1025.9 1025.9 0.0
04/04:30am 5.0 2.5 4.6 97 0.2 WSW 7 11 4 6 1025.8 1025.8 0.0
04/04:00am 4.9 2.5 4.5 97 0.2 W 6 7 3 4 1025.8 1025.8 0.0
04/03:30am 4.9 2.5 4.5 97 0.2 WSW 6 9 3 5 1025.9 1025.9 0.0
04/03:00am 4.9 2.4 4.5 97 0.2 WSW 7 11 4 6 1026.1 1026.1 0.0
04/02:30am 4.8 2.3 4.5 98 0.1 WSW 7 7 4 4 1026.0 1026.0 0.0
04/02:00am 4.6 2.0 4.3 98 0.1 W 7 9 4 5 1026.1 1026.1 0.0
04/01:30am 4.6 1.6 4.2 97 0.2 W 9 11 5 6 1025.9 1025.9 0.0
04/01:00am 4.6 2.0 4.2 97 0.2 WSW 7 9 4 5 1025.9 1025.9 0.0
04/12:30am 5.0 2.5 4.6 97 0.2 WSW 7 11 4 6 1026.1 1026.1 0.0
04/12:00am 5.4 3.1 4.8 96 0.3 WSW 6 9 3 5 1026.2 1026.3 0.0
 
Date/Time
EST
Temp
°C
App
Temp
°C
Dew
Point
Rel
Hum
%
Delta-T
°C
Wind Press
QNH
hPa
Press
MSL
hPa
Rain
since 9 am
mm
Dir
 
Spd
km/h
Gust
km/h
Spd
kts
Gust
kts
03/11:30pm 6.0 3.6 5.3 95 0.3 W 7 9 4 5 1026.1 1026.1 0.0
03/11:00pm 6.4 4.1 5.5 94 0.4 W 7 11 4 6 1026.2 1026.3 0.0
03/10:30pm 7.4 5.3 5.9 90 0.7 W 6 9 3 5 1026.0 1026.0 0.0
03/10:00pm 8.4 7.5 6.2 86 1.0 CALM 0 0 0 0 1026.0 1026.0 0.0
03/09:30pm 8.8 6.8 6.1 83 1.2 S 6 9 3 5 1025.9 1025.9 0.0
03/09:00pm 9.4 7.5 6.8 84 1.2 SSW 6 9 3 5 1025.8 1025.8 0.0
03/08:30pm 8.9 7.0 6.9 87 0.9 W 6 7 3 4 1025.7 1025.7 0.0
03/08:00pm 9.7 7.7 7.0 83 1.3 W 7 9 4 5 1025.5 1025.5 0.0
03/07:30pm 10.2 7.8 6.9 80 1.6 WSW 9 13 5 7 1025.4 1025.4 0.0
03/07:00pm 10.5 8.2 5.9 73 2.1 WSW 7 9 4 5 1024.9 1024.9 0.0
03/06:30pm 11.0 8.3 5.5 69 2.5 SSW 9 15 5 8 1024.7 1024.7 0.0
03/06:00pm 11.4 8.8 5.9 69 2.6 SSW 9 11 5 6 1024.3 1024.3 0.0
03/05:30pm 11.9 9.2 5.8 66 2.9 SW 9 13 5 7 1024.1 1024.1 0.0
03/05:00pm 12.4 8.9 5.6 63 3.2 SW 13 20 7 11 1023.9 1023.9 0.0
03/04:30pm 13.0 9.6 5.9 62 3.4 SW 13 20 7 11 1023.5 1023.5 0.0
03/04:00pm 13.0 9.6 6.1 63 3.3 SW 13 20 7 11 1023.5 1023.5 0.0
03/03:30pm 12.8 9.1 6.2 64 3.1 WSW 15 22 8 12 1023.4 1023.4 0.0
03/03:00pm 12.8 8.5 6.8 67 2.9 SSW 19 30 10 16 1023.3 1023.3 0.0
03/02:30pm 12.9 8.0 6.7 66 3.0 WSW 22 33 12 18 1023.1 1023.1 0.0
03/02:00pm 12.8 8.6 7.5 70 2.6 SSW 19 32 10 17 1023.4 1023.4 0.0
03/01:30pm 12.3 8.1 7.6 73 2.3 SW 19 37 10 20 1023.4 1023.4 0.0
03/01:00pm 11.8 8.5 7.9 77 1.9 SW 15 20 8 11 1023.4 1023.4 0.0
03/12:30pm 12.4 7.9 7.1 70 2.6 SSW 20 32 11 17 1023.8 1023.8 0.0
03/12:00pm 13.2 9.6 8.3 72 2.4 SW 17 26 9 14 1023.8 1023.8 0.0
03/11:30am 12.3 8.7 8.2 76 2.0 SW 17 26 9 14 1023.9 1023.9 0.0
03/11:00am 11.8 7.4 7.5 75 2.1 WSW 20 30 11 16 1024.0 1024.0 0.0
03/10:30am 11.8 7.5 7.7 76 2.0 WSW 20 33 11 18 1023.9 1023.9 0.0
03/10:00am 10.8 7.1 7.9 82 1.4 WSW 17 26 9 14 1023.8 1023.8 0.0
03/09:30am 10.4 6.1 8.0 85 1.2 W 20 32 11 17 1023.5 1023.5 0.0
03/09:00am 9.7 6.0 8.1 90 0.8 W 17 24 9 13 1023.3 1023.3 0.2
03/08:30am 8.9 5.5 7.7 92 0.6 W 15 24 8 13 1023.1 1023.1 0.2
03/08:00am 8.2 4.7 7.3 94 0.4 WNW 15 22 8 12 1022.7 1022.7 0.2
03/07:30am 8.4 5.8 7.8 96 0.3 W 11 17 6 9 1022.4 1022.4 0.0
03/07:26am 8.3 6.1 7.7 96 0.3 W 9 15 5 8 1022.3 1022.3 0.0
03/07:00am 8.4 6.1 7.6 95 0.4 SW 9 15 5 8 1022.2 1022.2 0.0
03/06:58am 8.4 5.7 7.5 94 0.4 SW 11 19 6 10 1022.2 1022.2 0.0
03/06:30am 8.4 5.3 7.3 93 0.5 W 13 22 7 12 1021.8 1021.8 0.0
03/06:00am 8.3 5.2 7.2 93 0.5 W 13 19 7 10 1021.6 1021.6 0.0
03/05:30am 8.3 4.4 7.1 92 0.6 W 17 24 9 13 1021.2 1021.2 0.0
03/05:00am 7.5 4.2 6.3 92 0.5 WNW 13 20 7 11 1021.1 1021.1 0.0
03/04:30am 7.1 4.1 5.9 92 0.5 WNW 11 17 6 9 1021.1 1021.1 0.0
03/04:00am 7.3 3.9 6.1 92 0.5 NW 13 19 7 10 1020.9 1020.9 0.0
03/03:30am 7.4 4.1 6.2 92 0.5 WNW 13 19 7 10 1021.0 1021.0 0.0
03/03:00am 7.8 4.5 6.3 90 0.7 WNW 13 17 7 9 1021.1 1021.1 0.0
03/02:30am 8.5 5.3 6.8 89 0.8 NW 13 19 7 10 1021.2 1021.2 0.0
03/02:00am 8.3 5.1 6.8 90 0.7 NW 13 17 7 9 1021.2 1021.2 0.0
03/01:30am 8.0 5.2 6.8 92 0.6 WNW 11 15 6 8 1021.4 1021.4 0.0
03/01:00am 8.1 4.9 6.7 91 0.6 WNW 13 17 7 9 1021.5 1021.5 0.0
03/12:30am 8.2 5.0 6.7 90 0.7 W 13 20 7 11 1021.4 1021.4 0.0
03/12:00am 7.7 4.7 6.0 89 0.8 WNW 11 13 6 7 1021.4 1021.4 0.0
 
Date/Time
EST
Temp
°C
App
Temp
°C
Dew
Point
Rel
Hum
%
Delta-T
°C
Wind Press
QNH
hPa
Press
MSL
hPa
Rain
since 9 am
mm
Dir
 
Spd
km/h
Gust
km/h
Spd
kts
Gust
kts
02/11:30pm 8.1 4.7 6.1 87 0.9 WNW 13 19 7 10 1021.4 1021.4 0.0
02/11:00pm 8.0 5.0 5.8 86 1.0 WNW 11 15 6 8 1021.5 1021.5 0.0
02/10:30pm 8.8 5.4 5.9 82 1.3 WNW 13 17 7 9 1021.4 1021.4 0.0
02/10:00pm 9.1 5.7 6.0 81 1.4 WNW 13 19 7 10 1021.2 1021.2 0.0
02/09:30pm 9.6 6.2 6.1 79 1.6 WNW 13 19 7 10 1021.2 1021.2 0.0
02/09:00pm 7.9 5.0 4.8 81 1.4 NW 9 13 5 7 1021.0 1021.0 0.0
02/08:30pm 8.2 4.9 4.8 79 1.5 NW 11 13 6 7 1020.6 1020.6 0.0
02/08:00pm 8.3 5.4 4.9 79 1.5 NW 9 11 5 6 1020.5 1020.5 0.0
02/07:30pm 8.7 5.9 5.3 79 1.5 WNW 9 13 5 7 1020.3 1020.3 0.0
02/07:00pm 9.2 6.9 5.6 78 1.6 WNW 7 11 4 6 1020.1 1020.1 0.0
02/06:30pm 10.2 7.2 5.8 74 2.0 WNW 11 15 6 8 1019.8 1019.8 0.0
02/06:00pm 11.2 7.8 5.7 69 2.5 W 13 19 7 10 1019.4 1019.4 0.0
02/05:30pm 13.0 8.8 5.7 61 3.4 W 17 28 9 15 1019.1 1019.1 0.0
02/05:00pm 13.2 8.9 5.4 59 3.6 W 17 28 9 15 1018.9 1018.9 0.0
02/04:30pm 13.4 8.8 5.6 59 3.7 W 19 28 10 15 1018.9 1018.9 0.0
02/04:00pm 13.6 8.2 4.7 55 4.1 WSW 22 43 12 23 1018.8 1018.8 0.0
02/03:30pm 14.4 8.3 5.0 53 4.4 W 26 41 14 22 1018.6 1018.6 0.0
02/03:00pm 14.3 10.0 5.1 54 4.3 WSW 17 30 9 16 1018.5 1018.5 0.0
02/02:30pm 13.9 8.6 5.0 55 4.2 W 22 32 12 17 1018.3 1018.3 0.0

Other Formats:

Comma delimited format used in spreadsheet applications
http://www.bom.gov.au/fwo/IDN60801/IDN60801.94693.axf

JavaScript Object Notation format (JSON) in row-major order
http://www.bom.gov.au/fwo/IDN60801/IDN60801.94693.json